sensor_id;sensor_type;location;lat;lon;timestamp;temperature;humidity
66102;HTU21D;52883;51.094;5.880;2022-08-19T00:00:09;17.09;118.99
66102;HTU21D;52883;51.094;5.880;2022-08-19T00:02:35;17.11;118.99
66102;HTU21D;52883;51.094;5.880;2022-08-19T00:05:01;17.11;118.99
66102;HTU21D;52883;51.094;5.880;2022-08-19T00:07:27;17.11;118.99
66102;HTU21D;52883;51.094;5.880;2022-08-19T00:09:53;17.09;118.99
66102;HTU21D;52883;51.094;5.880;2022-08-19T00:12:19;17.11;118.99
66102;HTU21D;52883;51.094;5.880;2022-08-19T00:14:45;17.14;118.99
66102;HTU21D;52883;51.094;5.880;2022-08-19T00:17:11;17.18;118.99
66102;HTU21D;52883;51.094;5.880;2022-08-19T00:19:37;17.19;118.99
66102;HTU21D;52883;51.094;5.880;2022-08-19T00:22:03;17.19;118.99
66102;HTU21D;52883;51.094;5.880;2022-08-19T00:24:31;17.17;118.99
66102;HTU21D;52883;51.094;5.880;2022-08-19T00:26:57;17.17;118.99
66102;HTU21D;52883;51.094;5.880;2022-08-19T00:29:24;17.18;118.99
66102;HTU21D;52883;51.094;5.880;2022-08-19T00:31:51;17.17;118.99
66102;HTU21D;52883;51.094;5.880;2022-08-19T00:34:21;17.16;118.99
66102;HTU21D;52883;51.094;5.880;2022-08-19T00:36:48;17.11;118.99
66102;HTU21D;52883;51.094;5.880;2022-08-19T00:39:16;17.11;118.99
66102;HTU21D;52883;51.094;5.880;2022-08-19T00:41:43;17.07;118.99
66102;HTU21D;52883;51.094;5.880;2022-08-19T00:44:17;16.96;118.99
66102;HTU21D;52883;51.094;5.880;2022-08-19T00:46:47;16.79;118.99
66102;HTU21D;52883;51.094;5.880;2022-08-19T00:51:56;16.54;118.99
66102;HTU21D;52883;51.094;5.880;2022-08-19T00:54:23;16.45;118.99
66102;HTU21D;52883;51.094;5.880;2022-08-19T00:56:50;16.34;118.99
66102;HTU21D;52883;51.094;5.880;2022-08-19T00:59:18;16.28;118.99
66102;HTU21D;52883;51.094;5.880;2022-08-19T01:01:45;16.21;118.99
66102;HTU21D;52883;51.094;5.880;2022-08-19T01:04:12;16.19;118.99
66102;HTU21D;52883;51.094;5.880;2022-08-19T01:06:39;16.15;118.99
66102;HTU21D;52883;51.094;5.880;2022-08-19T01:09:07;16.08;118.99
66102;HTU21D;52883;51.094;5.880;2022-08-19T01:11:38;16.08;118.99
66102;HTU21D;52883;51.094;5.880;2022-08-19T01:14:07;16.15;118.99
66102;HTU21D;52883;51.094;5.880;2022-08-19T01:16:34;16.24;118.99
66102;HTU21D;52883;51.094;5.880;2022-08-19T01:19:02;16.31;118.99
66102;HTU21D;52883;51.094;5.880;2022-08-19T01:21:34;16.33;118.99
66102;HTU21D;52883;51.094;5.880;2022-08-19T01:24:02;16.27;118.99
66102;HTU21D;52883;51.094;5.880;2022-08-19T01:26:28;16.19;118.99
66102;HTU21D;52883;51.094;5.880;2022-08-19T01:28:56;16.15;118.99
66102;HTU21D;52883;51.094;5.880;2022-08-19T01:31:27;16.17;118.99
66102;HTU21D;52883;51.094;5.880;2022-08-19T01:33:57;16.21;118.99
66102;HTU21D;52883;51.094;5.880;2022-08-19T01:38:56;16.22;118.99
66102;HTU21D;52883;51.094;5.880;2022-08-19T01:41:23;16.18;118.99
66102;HTU21D;52883;51.094;5.880;2022-08-19T01:43:50;16.08;118.99
66102;HTU21D;52883;51.094;5.880;2022-08-19T01:46:16;16.03;118.99
66102;HTU21D;52883;51.094;5.880;2022-08-19T01:48:43;15.99;118.99
66102;HTU21D;52883;51.094;5.880;2022-08-19T01:51:10;15.92;118.99
66102;HTU21D;52883;51.094;5.880;2022-08-19T01:53:37;15.86;118.99
66102;HTU21D;52883;51.094;5.880;2022-08-19T01:56:03;15.78;118.99
66102;HTU21D;52883;51.094;5.880;2022-08-19T01:58:38;15.69;118.99
66102;HTU21D;52883;51.094;5.880;2022-08-19T02:01:06;15.58;118.99
66102;HTU21D;52883;51.094;5.880;2022-08-19T02:03:31;15.53;118.99
66102;HTU21D;52883;51.094;5.880;2022-08-19T02:05:59;15.49;118.99
66102;HTU21D;52883;51.094;5.880;2022-08-19T02:08:26;15.47;118.99
66102;HTU21D;52883;51.094;5.880;2022-08-19T02:10:52;15.52;118.99
66102;HTU21D;52883;51.094;5.880;2022-08-19T02:13:19;15.57;118.99
66102;HTU21D;52883;51.094;5.880;2022-08-19T02:15:45;15.55;118.99
66102;HTU21D;52883;51.094;5.880;2022-08-19T02:18:11;15.54;118.99
66102;HTU21D;52883;51.094;5.880;2022-08-19T02:20:38;15.59;118.99
66102;HTU21D;52883;51.094;5.880;2022-08-19T02:23:05;15.61;118.99
66102;HTU21D;52883;51.094;5.880;2022-08-19T02:25:31;15.63;118.99
66102;HTU21D;52883;51.094;5.880;2022-08-19T02:27:56;15.67;118.99
66102;HTU21D;52883;51.094;5.880;2022-08-19T02:30:22;15.71;118.99
66102;HTU21D;52883;51.094;5.880;2022-08-19T02:32:47;15.75;118.99
66102;HTU21D;52883;51.094;5.880;2022-08-19T02:35:13;15.77;118.99
66102;HTU21D;52883;51.094;5.880;2022-08-19T02:37:41;15.77;118.99
66102;HTU21D;52883;51.094;5.880;2022-08-19T02:40:26;15.81;118.99
66102;HTU21D;52883;51.094;5.880;2022-08-19T02:42:52;15.85;118.99
66102;HTU21D;52883;51.094;5.880;2022-08-19T02:45:18;15.90;118.99
66102;HTU21D;52883;51.094;5.880;2022-08-19T02:47:44;15.93;118.99
66102;HTU21D;52883;51.094;5.880;2022-08-19T02:50:09;15.91;118.99
66102;HTU21D;52883;51.094;5.880;2022-08-19T02:52:35;15.88;118.99
66102;HTU21D;52883;51.094;5.880;2022-08-19T02:55:01;15.90;118.99
66102;HTU21D;52883;51.094;5.880;2022-08-19T02:57:27;15.88;118.99
66102;HTU21D;52883;51.094;5.880;2022-08-19T02:59:53;15.85;118.99
66102;HTU21D;52883;51.094;5.880;2022-08-19T03:02:19;15.89;118.99
66102;HTU21D;52883;51.094;5.880;2022-08-19T03:04:45;15.92;118.99
66102;HTU21D;52883;51.094;5.880;2022-08-19T03:07:15;15.83;118.99
66102;HTU21D;52883;51.094;5.880;2022-08-19T03:09:42;15.72;118.99
66102;HTU21D;52883;51.094;5.880;2022-08-19T03:12:08;15.71;118.99
66102;HTU21D;52883;51.094;5.880;2022-08-19T03:14:35;15.78;118.99
66102;HTU21D;52883;51.094;5.880;2022-08-19T03:17:01;15.83;118.99
66102;HTU21D;52883;51.094;5.880;2022-08-19T03:19:26;15.80;118.99
66102;HTU21D;52883;51.094;5.880;2022-08-19T03:21:53;15.75;118.99
66102;HTU21D;52883;51.094;5.880;2022-08-19T03:24:19;15.67;118.99
66102;HTU21D;52883;51.094;5.880;2022-08-19T03:26:49;15.62;118.99
66102;HTU21D;52883;51.094;5.880;2022-08-19T03:29:16;15.60;118.99
66102;HTU21D;52883;51.094;5.880;2022-08-19T03:31:43;15.57;118.99
66102;HTU21D;52883;51.094;5.880;2022-08-19T03:34:18;15.55;118.99
66102;HTU21D;52883;51.094;5.880;2022-08-19T03:36:45;15.46;118.99
66102;HTU21D;52883;51.094;5.880;2022-08-19T03:39:11;15.44;118.99
66102;HTU21D;52883;51.094;5.880;2022-08-19T03:41:39;15.47;118.99
66102;HTU21D;52883;51.094;5.880;2022-08-19T03:44:06;15.44;118.99
66102;HTU21D;52883;51.094;5.880;2022-08-19T03:46:33;15.42;118.99
66102;HTU21D;52883;51.094;5.880;2022-08-19T03:49:01;15.38;118.99
66102;HTU21D;52883;51.094;5.880;2022-08-19T03:51:31;15.39;118.99
66102;HTU21D;52883;51.094;5.880;2022-08-19T03:54:00;15.42;118.99
66102;HTU21D;52883;51.094;5.880;2022-08-19T03:56:27;15.43;118.99
66102;HTU21D;52883;51.094;5.880;2022-08-19T03:58:54;15.49;118.99
66102;HTU21D;52883;51.094;5.880;2022-08-19T04:01:24;15.53;118.99
66102;HTU21D;52883;51.094;5.880;2022-08-19T04:03:52;15.57;118.99
66102;HTU21D;52883;51.094;5.880;2022-08-19T04:06:21;15.67;118.99
66102;HTU21D;52883;51.094;5.880;2022-08-19T04:08:50;15.66;118.99
66102;HTU21D;52883;51.094;5.880;2022-08-19T04:11:19;15.58;118.99
66102;HTU21D;52883;51.094;5.880;2022-08-19T04:13:47;15.52;118.99
66102;HTU21D;52883;51.094;5.880;2022-08-19T04:16:14;15.45;118.99
66102;HTU21D;52883;51.094;5.880;2022-08-19T04:18:40;15.44;118.99
66102;HTU21D;52883;51.094;5.880;2022-08-19T04:21:08;15.46;118.99
66102;HTU21D;52883;51.094;5.880;2022-08-19T04:23:34;15.52;118.99
66102;HTU21D;52883;51.094;5.880;2022-08-19T04:26:03;15.54;118.99
66102;HTU21D;52883;51.094;5.880;2022-08-19T04:28:28;15.54;118.99
66102;HTU21D;52883;51.094;5.880;2022-08-19T04:30:55;15.53;118.99
66102;HTU21D;52883;51.094;5.880;2022-08-19T04:33:24;15.55;118.99
66102;HTU21D;52883;51.094;5.880;2022-08-19T04:35:52;15.60;118.99
66102;HTU21D;52883;51.094;5.880;2022-08-19T04:38:21;15.68;118.99
66102;HTU21D;52883;51.094;5.880;2022-08-19T04:40:49;15.77;118.99
66102;HTU21D;52883;51.094;5.880;2022-08-19T04:43:36;15.85;118.99
66102;HTU21D;52883;51.094;5.880;2022-08-19T04:46:11;15.87;118.99
66102;HTU21D;52883;51.094;5.880;2022-08-19T04:48:38;15.91;118.99
66102;HTU21D;52883;51.094;5.880;2022-08-19T04:51:10;15.93;118.99
66102;HTU21D;52883;51.094;5.880;2022-08-19T04:53:39;15.99;118.99
66102;HTU21D;52883;51.094;5.880;2022-08-19T04:56:08;16.02;118.99
66102;HTU21D;52883;51.094;5.880;2022-08-19T04:58:35;16.06;118.99
66102;HTU21D;52883;51.094;5.880;2022-08-19T05:01:02;16.07;118.99
66102;HTU21D;52883;51.094;5.880;2022-08-19T05:03:28;16.12;118.99
66102;HTU21D;52883;51.094;5.880;2022-08-19T05:05:58;16.15;118.99
66102;HTU21D;52883;51.094;5.880;2022-08-19T05:08:23;16.14;118.99
66102;HTU21D;52883;51.094;5.880;2022-08-19T05:10:51;16.13;118.99
66102;HTU21D;52883;51.094;5.880;2022-08-19T05:13:18;16.16;118.99
66102;HTU21D;52883;51.094;5.880;2022-08-19T05:15:54;16.20;118.99
66102;HTU21D;52883;51.094;5.880;2022-08-19T05:18:20;16.28;118.99
66102;HTU21D;52883;51.094;5.880;2022-08-19T05:21:09;16.32;118.99
66102;HTU21D;52883;51.094;5.880;2022-08-19T05:23:53;16.33;118.99
66102;HTU21D;52883;51.094;5.880;2022-08-19T05:26:18;16.36;118.99
66102;HTU21D;52883;51.094;5.880;2022-08-19T05:28:44;16.46;118.99
66102;HTU21D;52883;51.094;5.880;2022-08-19T05:31:10;16.52;118.99
66102;HTU21D;52883;51.094;5.880;2022-08-19T05:33:35;16.65;118.99
66102;HTU21D;52883;51.094;5.880;2022-08-19T05:36:02;16.80;118.99
66102;HTU21D;52883;51.094;5.880;2022-08-19T05:38:28;16.93;118.99
66102;HTU21D;52883;51.094;5.880;2022-08-19T05:40:55;17.11;118.99
66102;HTU21D;52883;51.094;5.880;2022-08-19T05:43:21;17.40;118.99
66102;HTU21D;52883;51.094;5.880;2022-08-19T05:45:47;17.68;118.99
66102;HTU21D;52883;51.094;5.880;2022-08-19T05:48:13;17.82;118.99
66102;HTU21D;52883;51.094;5.880;2022-08-19T05:50:41;17.91;118.99
66102;HTU21D;52883;51.094;5.880;2022-08-19T05:53:07;18.06;118.99
66102;HTU21D;52883;51.094;5.880;2022-08-19T05:55:35;18.51;118.99
66102;HTU21D;52883;51.094;5.880;2022-08-19T05:58:03;19.05;118.99
66102;HTU21D;52883;51.094;5.880;2022-08-19T06:00:29;19.43;118.99
66102;HTU21D;52883;51.094;5.880;2022-08-19T06:02:56;19.89;118.99
66102;HTU21D;52883;51.094;5.880;2022-08-19T06:05:25;20.35;118.99
66102;HTU21D;52883;51.094;5.880;2022-08-19T06:07:50;20.81;118.99
66102;HTU21D;52883;51.094;5.880;2022-08-19T06:10:16;21.22;118.99
66102;HTU21D;52883;51.094;5.880;2022-08-19T06:12:41;21.53;118.99
66102;HTU21D;52883;51.094;5.880;2022-08-19T06:15:12;21.94;118.99
66102;HTU21D;52883;51.094;5.880;2022-08-19T06:17:38;22.33;118.99
66102;HTU21D;52883;51.094;5.880;2022-08-19T06:20:07;22.71;118.99
66102;HTU21D;52883;51.094;5.880;2022-08-19T06:22:42;23.11;118.99
66102;HTU21D;52883;51.094;5.880;2022-08-19T06:25:08;23.22;118.99
66102;HTU21D;52883;51.094;5.880;2022-08-19T06:27:35;23.29;118.99
66102;HTU21D;52883;51.094;5.880;2022-08-19T06:30:11;23.57;118.99
66102;HTU21D;52883;51.094;5.880;2022-08-19T06:32:37;23.89;118.99
66102;HTU21D;52883;51.094;5.880;2022-08-19T06:35:04;24.53;118.99
66102;HTU21D;52883;51.094;5.880;2022-08-19T06:37:30;24.87;118.99
66102;HTU21D;52883;51.094;5.880;2022-08-19T06:39:56;24.39;118.99
66102;HTU21D;52883;51.094;5.880;2022-08-19T06:42:21;24.17;118.99
66102;HTU21D;52883;51.094;5.880;2022-08-19T06:44:47;24.72;118.99
66102;HTU21D;52883;51.094;5.880;2022-08-19T06:47:20;25.37;118.99
66102;HTU21D;52883;51.094;5.880;2022-08-19T06:49:45;25.76;118.02
66102;HTU21D;52883;51.094;5.880;2022-08-19T06:52:12;26.03;118.99
66102;HTU21D;52883;51.094;5.880;2022-08-19T06:54:38;26.30;118.99
66102;HTU21D;52883;51.094;5.880;2022-08-19T06:57:06;26.45;118.10
66102;HTU21D;52883;51.094;5.880;2022-08-19T06:59:32;25.89;107.28
66102;HTU21D;52883;51.094;5.880;2022-08-19T07:02:01;25.42;118.99
66102;HTU21D;52883;51.094;5.880;2022-08-19T07:04:31;25.22;118.99
66102;HTU21D;52883;51.094;5.880;2022-08-19T07:07:12;24.58;118.99
66102;HTU21D;52883;51.094;5.880;2022-08-19T07:09:41;24.18;118.99
66102;HTU21D;52883;51.094;5.880;2022-08-19T07:12:10;24.17;118.99
66102;HTU21D;52883;51.094;5.880;2022-08-19T07:14:37;24.21;118.99
66102;HTU21D;52883;51.094;5.880;2022-08-19T07:17:06;24.19;118.99
66102;HTU21D;52883;51.094;5.880;2022-08-19T07:19:33;24.30;118.99
66102;HTU21D;52883;51.094;5.880;2022-08-19T07:22:02;24.43;118.99
66102;HTU21D;52883;51.094;5.880;2022-08-19T07:24:29;24.30;118.99
66102;HTU21D;52883;51.094;5.880;2022-08-19T07:26:58;24.17;118.99
66102;HTU21D;52883;51.094;5.880;2022-08-19T07:29:27;24.06;118.99
66102;HTU21D;52883;51.094;5.880;2022-08-19T07:31:54;23.97;118.99
66102;HTU21D;52883;51.094;5.880;2022-08-19T07:34:25;23.87;118.99
66102;HTU21D;52883;51.094;5.880;2022-08-19T07:36:52;23.80;118.99
66102;HTU21D;52883;51.094;5.880;2022-08-19T07:39:28;23.56;118.99
66102;HTU21D;52883;51.094;5.880;2022-08-19T07:41:56;23.40;118.99
66102;HTU21D;52883;51.094;5.880;2022-08-19T07:44:22;23.36;118.99
66102;HTU21D;52883;51.094;5.880;2022-08-19T07:46:51;23.42;118.99
66102;HTU21D;52883;51.094;5.880;2022-08-19T07:49:18;23.54;118.99
66102;HTU21D;52883;51.094;5.880;2022-08-19T07:51:51;23.56;118.99
66102;HTU21D;52883;51.094;5.880;2022-08-19T07:54:18;23.53;118.99
66102;HTU21D;52883;51.094;5.880;2022-08-19T07:56:44;23.49;118.99
66102;HTU21D;52883;51.094;5.880;2022-08-19T07:59:10;23.59;118.99
66102;HTU21D;52883;51.094;5.880;2022-08-19T08:01:37;23.81;118.99
66102;HTU21D;52883;51.094;5.880;2022-08-19T08:04:06;24.06;118.99
66102;HTU21D;52883;51.094;5.880;2022-08-19T08:06:50;24.57;118.99
66102;HTU21D;52883;51.094;5.880;2022-08-19T08:09:38;24.99;117.97
66102;HTU21D;52883;51.094;5.880;2022-08-19T08:12:15;25.31;115.03
66102;HTU21D;52883;51.094;5.880;2022-08-19T08:14:47;25.51;116.44
66102;HTU21D;52883;51.094;5.880;2022-08-19T08:17:16;25.84;116.42
66102;HTU21D;52883;51.094;5.880;2022-08-19T08:19:43;26.68;113.09
66102;HTU21D;52883;51.094;5.880;2022-08-19T08:22:11;27.56;108.07
66102;HTU21D;52883;51.094;5.880;2022-08-19T08:25:04;28.24;106.27
66102;HTU21D;52883;51.094;5.880;2022-08-19T08:27:30;28.88;103.41
66102;HTU21D;52883;51.094;5.880;2022-08-19T08:29:57;29.09;96.46
66102;HTU21D;52883;51.094;5.880;2022-08-19T08:32:23;29.00;95.14
66102;HTU21D;52883;51.094;5.880;2022-08-19T08:34:48;28.70;99.20
66102;HTU21D;52883;51.094;5.880;2022-08-19T08:37:14;28.73;100.60
66102;HTU21D;52883;51.094;5.880;2022-08-19T08:39:39;29.11;99.41
66102;HTU21D;52883;51.094;5.880;2022-08-19T08:42:31;29.42;97.31
66102;HTU21D;52883;51.094;5.880;2022-08-19T08:45:08;29.38;93.38
66102;HTU21D;52883;51.094;5.880;2022-08-19T08:47:45;29.58;83.93
66102;HTU21D;52883;51.094;5.880;2022-08-19T08:50:20;29.91;96.71
66102;HTU21D;52883;51.094;5.880;2022-08-19T08:52:51;30.28;91.87
66102;HTU21D;52883;51.094;5.880;2022-08-19T08:55:22;30.57;93.20
66102;HTU21D;52883;51.094;5.880;2022-08-19T09:00:30;31.71;88.56
66102;HTU21D;52883;51.094;5.880;2022-08-19T09:02:59;31.71;85.91
66102;HTU21D;52883;51.094;5.880;2022-08-19T09:11:07;30.63;85.82
66102;HTU21D;52883;51.094;5.880;2022-08-19T09:16:29;29.97;81.12
66102;HTU21D;52883;51.094;5.880;2022-08-19T09:19:15;30.11;84.55
66102;HTU21D;52883;51.094;5.880;2022-08-19T09:21:43;30.52;89.44
66102;HTU21D;52883;51.094;5.880;2022-08-19T09:24:08;31.11;85.12
66102;HTU21D;52883;51.094;5.880;2022-08-19T09:26:37;31.43;80.35
66102;HTU21D;52883;51.094;5.880;2022-08-19T09:29:03;31.78;77.51
66102;HTU21D;52883;51.094;5.880;2022-08-19T09:31:32;31.82;76.85
66102;HTU21D;52883;51.094;5.880;2022-08-19T09:33:59;32.00;66.99
66102;HTU21D;52883;51.094;5.880;2022-08-19T09:36:27;32.41;79.56
66102;HTU21D;52883;51.094;5.880;2022-08-19T09:38:58;32.57;78.20
66102;HTU21D;52883;51.094;5.880;2022-08-19T09:41:26;32.74;73.40
66102;HTU21D;52883;51.094;5.880;2022-08-19T09:43:54;32.89;70.64
66102;HTU21D;52883;51.094;5.880;2022-08-19T09:46:27;32.68;76.35
66102;HTU21D;52883;51.094;5.880;2022-08-19T09:48:53;32.77;72.03
66102;HTU21D;52883;51.094;5.880;2022-08-19T09:51:23;32.90;59.41
66102;HTU21D;52883;51.094;5.880;2022-08-19T09:53:50;33.04;68.11
66102;HTU21D;52883;51.094;5.880;2022-08-19T09:56:18;32.82;71.42
66102;HTU21D;52883;51.094;5.880;2022-08-19T09:58:45;32.15;67.10
66102;HTU21D;52883;51.094;5.880;2022-08-19T10:01:20;31.61;71.19
66102;HTU21D;52883;51.094;5.880;2022-08-19T10:03:49;31.59;76.36
66102;HTU21D;52883;51.094;5.880;2022-08-19T10:06:15;32.02;73.16
66102;HTU21D;52883;51.094;5.880;2022-08-19T10:08:41;32.30;74.17
66102;HTU21D;52883;51.094;5.880;2022-08-19T10:11:08;32.34;60.73
66102;HTU21D;52883;51.094;5.880;2022-08-19T10:13:35;32.38;67.84
66102;HTU21D;52883;51.094;5.880;2022-08-19T10:16:11;32.61;66.80
66102;HTU21D;52883;51.094;5.880;2022-08-19T10:18:38;32.91;70.32
66102;HTU21D;52883;51.094;5.880;2022-08-19T10:21:19;33.16;66.01
66102;HTU21D;52883;51.094;5.880;2022-08-19T10:23:48;33.16;50.90
66102;HTU21D;52883;51.094;5.880;2022-08-19T10:26:18;33.33;64.85
66102;HTU21D;52883;51.094;5.880;2022-08-19T10:28:44;33.41;61.41
66102;HTU21D;52883;51.094;5.880;2022-08-19T10:31:14;33.33;60.27
66102;HTU21D;52883;51.094;5.880;2022-08-19T10:33:40;33.31;65.98
66102;HTU21D;52883;51.094;5.880;2022-08-19T10:36:13;33.45;66.66
66102;HTU21D;52883;51.094;5.880;2022-08-19T10:38:50;33.78;66.46
66102;HTU21D;52883;51.094;5.880;2022-08-19T10:41:22;34.02;48.55
66102;HTU21D;52883;51.094;5.880;2022-08-19T10:43:53;34.01;65.50
66102;HTU21D;52883;51.094;5.880;2022-08-19T10:46:21;33.93;54.71
66102;HTU21D;52883;51.094;5.880;2022-08-19T10:48:48;33.97;61.34
66102;HTU21D;52883;51.094;5.880;2022-08-19T10:51:14;33.79;50.18
66102;HTU21D;52883;51.094;5.880;2022-08-19T10:53:59;34.04;59.65
66102;HTU21D;52883;51.094;5.880;2022-08-19T10:56:26;33.97;48.75
66102;HTU21D;52883;51.094;5.880;2022-08-19T10:59:11;34.27;57.26
66102;HTU21D;52883;51.094;5.880;2022-08-19T11:01:40;34.56;54.12
66102;HTU21D;52883;51.094;5.880;2022-08-19T11:04:07;34.52;48.56
66102;HTU21D;52883;51.094;5.880;2022-08-19T11:06:40;34.49;57.71
66102;HTU21D;52883;51.094;5.880;2022-08-19T11:09:07;34.53;54.66
66102;HTU21D;52883;51.094;5.880;2022-08-19T11:11:34;34.39;48.09
66102;HTU21D;52883;51.094;5.880;2022-08-19T11:14:12;34.34;52.94
66102;HTU21D;52883;51.094;5.880;2022-08-19T11:16:40;34.27;56.37
66102;HTU21D;52883;51.094;5.880;2022-08-19T11:19:09;34.37;51.67
66102;HTU21D;52883;51.094;5.880;2022-08-19T11:21:38;34.54;52.26
66102;HTU21D;52883;51.094;5.880;2022-08-19T11:24:17;34.75;53.50
66102;HTU21D;52883;51.094;5.880;2022-08-19T11:26:44;34.75;52.01
66102;HTU21D;52883;51.094;5.880;2022-08-19T11:29:12;34.44;46.56
66102;HTU21D;52883;51.094;5.880;2022-08-19T11:31:41;34.08;46.49
66102;HTU21D;52883;51.094;5.880;2022-08-19T11:34:10;33.94;54.50
66102;HTU21D;52883;51.094;5.880;2022-08-19T11:36:39;34.10;52.38
66102;HTU21D;52883;51.094;5.880;2022-08-19T11:39:07;34.27;48.47
66102;HTU21D;52883;51.094;5.880;2022-08-19T11:41:33;34.51;49.31
66102;HTU21D;52883;51.094;5.880;2022-08-19T11:43:59;34.73;48.77
66102;HTU21D;52883;51.094;5.880;2022-08-19T11:46:26;34.92;48.91
66102;HTU21D;52883;51.094;5.880;2022-08-19T11:48:56;34.88;50.69
66102;HTU21D;52883;51.094;5.880;2022-08-19T11:51:23;34.91;39.59
66102;HTU21D;52883;51.094;5.880;2022-08-19T11:53:51;35.07;48.32
66102;HTU21D;52883;51.094;5.880;2022-08-19T11:56:17;35.15;43.36
66102;HTU21D;52883;51.094;5.880;2022-08-19T11:58:44;35.16;39.96
66102;HTU21D;52883;51.094;5.880;2022-08-19T12:01:17;34.90;43.77
66102;HTU21D;52883;51.094;5.880;2022-08-19T12:03:45;34.79;52.72
66102;HTU21D;52883;51.094;5.880;2022-08-19T12:06:15;34.91;42.45
66102;HTU21D;52883;51.094;5.880;2022-08-19T12:08:42;34.77;40.84
66102;HTU21D;52883;51.094;5.880;2022-08-19T12:11:09;34.74;38.39
66102;HTU21D;52883;51.094;5.880;2022-08-19T12:13:36;34.64;43.61
66102;HTU21D;52883;51.094;5.880;2022-08-19T12:16:13;34.55;41.97
66102;HTU21D;52883;51.094;5.880;2022-08-19T12:18:42;34.63;42.72
66102;HTU21D;52883;51.094;5.880;2022-08-19T12:21:12;34.82;43.05
66102;HTU21D;52883;51.094;5.880;2022-08-19T12:23:42;35.07;45.07
66102;HTU21D;52883;51.094;5.880;2022-08-19T12:26:09;35.55;46.21
66102;HTU21D;52883;51.094;5.880;2022-08-19T12:28:35;35.98;38.47
66102;HTU21D;52883;51.094;5.880;2022-08-19T12:31:01;36.19;37.81
66102;HTU21D;52883;51.094;5.880;2022-08-19T12:33:26;36.21;43.19
66102;HTU21D;52883;51.094;5.880;2022-08-19T12:35:54;36.40;41.49
66102;HTU21D;52883;51.094;5.880;2022-08-19T12:38:21;36.81;37.91
66102;HTU21D;52883;51.094;5.880;2022-08-19T12:40:49;36.66;39.12
66102;HTU21D;52883;51.094;5.880;2022-08-19T12:43:17;35.79;41.71
66102;HTU21D;52883;51.094;5.880;2022-08-19T12:45:44;35.12;43.72
66102;HTU21D;52883;51.094;5.880;2022-08-19T12:48:11;34.82;42.26
66102;HTU21D;52883;51.094;5.880;2022-08-19T12:50:39;34.45;44.61
66102;HTU21D;52883;51.094;5.880;2022-08-19T12:53:05;34.31;40.91
66102;HTU21D;52883;51.094;5.880;2022-08-19T12:55:30;34.27;44.45
66102;HTU21D;52883;51.094;5.880;2022-08-19T12:57:57;33.83;42.34
66102;HTU21D;52883;51.094;5.880;2022-08-19T13:00:23;33.25;44.04
66102;HTU21D;52883;51.094;5.880;2022-08-19T13:02:51;32.85;48.90
66102;HTU21D;52883;51.094;5.880;2022-08-19T13:05:21;32.99;51.11
66102;HTU21D;52883;51.094;5.880;2022-08-19T13:07:49;33.14;43.51
66102;HTU21D;52883;51.094;5.880;2022-08-19T13:10:19;32.92;48.74
66102;HTU21D;52883;51.094;5.880;2022-08-19T13:12:46;32.61;49.85
66102;HTU21D;52883;51.094;5.880;2022-08-19T13:15:14;32.70;51.05
66102;HTU21D;52883;51.094;5.880;2022-08-19T13:17:41;32.56;52.24
66102;HTU21D;52883;51.094;5.880;2022-08-19T13:20:09;32.58;53.18
66102;HTU21D;52883;51.094;5.880;2022-08-19T13:22:35;32.82;51.14
66102;HTU21D;52883;51.094;5.880;2022-08-19T13:25:02;32.87;51.48
66102;HTU21D;52883;51.094;5.880;2022-08-19T13:27:29;32.87;48.18
66102;HTU21D;52883;51.094;5.880;2022-08-19T13:29:54;32.83;51.83
66102;HTU21D;52883;51.094;5.880;2022-08-19T13:32:38;33.17;46.58
66102;HTU21D;52883;51.094;5.880;2022-08-19T13:35:23;33.48;42.77
66102;HTU21D;52883;51.094;5.880;2022-08-19T13:37:48;33.46;48.51
66102;HTU21D;52883;51.094;5.880;2022-08-19T13:40:19;33.53;50.66
66102;HTU21D;52883;51.094;5.880;2022-08-19T13:42:50;33.87;49.56
66102;HTU21D;52883;51.094;5.880;2022-08-19T13:45:19;34.24;48.72
66102;HTU21D;52883;51.094;5.880;2022-08-19T13:47:46;34.60;48.56
66102;HTU21D;52883;51.094;5.880;2022-08-19T13:50:15;35.07;42.16
66102;HTU21D;52883;51.094;5.880;2022-08-19T13:52:41;35.54;43.88
66102;HTU21D;52883;51.094;5.880;2022-08-19T13:55:09;35.70;38.98
66102;HTU21D;52883;51.094;5.880;2022-08-19T13:57:35;35.00;41.81
66102;HTU21D;52883;51.094;5.880;2022-08-19T14:00:05;34.30;46.81
66102;HTU21D;52883;51.094;5.880;2022-08-19T14:02:31;34.02;47.80
66102;HTU21D;52883;51.094;5.880;2022-08-19T14:04:58;33.83;49.43
66102;HTU21D;52883;51.094;5.880;2022-08-19T14:07:23;33.72;51.27
66102;HTU21D;52883;51.094;5.880;2022-08-19T14:09:50;33.61;46.60
66102;HTU21D;52883;51.094;5.880;2022-08-19T14:12:19;33.46;52.41
66102;HTU21D;52883;51.094;5.880;2022-08-19T14:14:46;33.37;50.85
66102;HTU21D;52883;51.094;5.880;2022-08-19T14:17:11;33.34;52.05
66102;HTU21D;52883;51.094;5.880;2022-08-19T14:19:37;33.44;52.85
66102;HTU21D;52883;51.094;5.880;2022-08-19T14:22:02;33.45;50.52
66102;HTU21D;52883;51.094;5.880;2022-08-19T14:24:29;33.27;47.96
66102;HTU21D;52883;51.094;5.880;2022-08-19T14:26:54;32.81;50.53
66102;HTU21D;52883;51.094;5.880;2022-08-19T14:29:20;32.34;54.26
66102;HTU21D;52883;51.094;5.880;2022-08-19T14:31:45;32.16;56.48
66102;HTU21D;52883;51.094;5.880;2022-08-19T14:34:11;32.07;54.34
66102;HTU21D;52883;51.094;5.880;2022-08-19T14:36:38;32.13;58.19
66102;HTU21D;52883;51.094;5.880;2022-08-19T14:39:04;32.30;58.19
66102;HTU21D;52883;51.094;5.880;2022-08-19T14:41:30;32.38;57.24
66102;HTU21D;52883;51.094;5.880;2022-08-19T14:43:57;32.48;58.19
66102;HTU21D;52883;51.094;5.880;2022-08-19T14:46:25;32.55;57.30
66102;HTU21D;52883;51.094;5.880;2022-08-19T14:48:53;32.62;57.30
66102;HTU21D;52883;51.094;5.880;2022-08-19T14:51:21;32.64;57.36
66102;HTU21D;52883;51.094;5.880;2022-08-19T14:53:47;32.82;56.10
66102;HTU21D;52883;51.094;5.880;2022-08-19T14:56:20;32.78;55.49
66102;HTU21D;52883;51.094;5.880;2022-08-19T14:58:46;32.77;54.72
66102;HTU21D;52883;51.094;5.880;2022-08-19T15:01:13;32.60;53.72
66102;HTU21D;52883;51.094;5.880;2022-08-19T15:03:39;32.33;53.28
66102;HTU21D;52883;51.094;5.880;2022-08-19T15:06:07;32.07;57.62
66102;HTU21D;52883;51.094;5.880;2022-08-19T15:08:35;31.93;58.88
66102;HTU21D;52883;51.094;5.880;2022-08-19T15:11:02;31.93;60.07
66102;HTU21D;52883;51.094;5.880;2022-08-19T15:13:29;31.92;61.26
66102;HTU21D;52883;51.094;5.880;2022-08-19T15:15:56;31.93;61.23
66102;HTU21D;52883;51.094;5.880;2022-08-19T15:18:22;31.76;60.96
66102;HTU21D;52883;51.094;5.880;2022-08-19T15:20:49;31.36;63.39
66102;HTU21D;52883;51.094;5.880;2022-08-19T15:23:17;31.05;65.62
66102;HTU21D;52883;51.094;5.880;2022-08-19T15:25:43;31.01;65.42
66102;HTU21D;52883;51.094;5.880;2022-08-19T15:28:09;31.01;65.14
66102;HTU21D;52883;51.094;5.880;2022-08-19T15:30:39;31.07;66.17